createdAt,value
2023-02-12T12:59:27.303Z,8.87
2023-02-12T13:00:38.100Z,9.24
2023-02-12T13:01:54.907Z,9.13
2023-02-12T13:03:05.354Z,8.76
2023-02-12T13:04:40.767Z,9.46
2023-02-12T13:05:51.231Z,9.67
2023-02-12T13:07:03.294Z,8.99
2023-02-12T13:08:33.811Z,8.33
2023-02-12T13:10:09.540Z,9.50
2023-02-12T13:11:33.367Z,10.61
2023-02-12T13:12:40.936Z,10.77
2023-02-12T13:13:47.292Z,12.10
2023-02-12T13:14:57.716Z,12.00
2023-02-12T13:16:21.619Z,12.71
2023-02-12T13:17:45.985Z,12.14
2023-02-12T13:19:29.375Z,11.96
2023-02-12T13:20:47.416Z,12.76
2023-02-12T13:21:58.916Z,12.70
2023-02-12T13:23:07.491Z,12.73
2023-02-12T13:24:30.171Z,10.98
2023-02-12T13:25:42.549Z,11.23
2023-02-12T13:26:53.021Z,10.87
2023-02-12T13:27:56.504Z,9.69
2023-02-12T13:29:09.893Z,9.75
2023-02-12T13:30:14.263Z,9.31
2023-02-12T13:31:35.736Z,9.99
2023-02-12T13:32:43.447Z,9.53
2023-02-12T13:33:50.290Z,10.84
2023-02-12T13:34:54.414Z,11.56
2023-02-12T13:36:00.290Z,10.37
2023-02-12T13:37:04.117Z,9.72
2023-02-12T13:38:08.683Z,9.64
2023-02-12T13:39:41.593Z,9.01
2023-02-12T13:40:43.210Z,9.98
2023-02-12T13:41:54.054Z,9.97
2023-02-12T13:43:00.032Z,10.12
2023-02-12T13:44:26.275Z,10.34
2023-02-12T13:45:33.607Z,11.78
2023-02-12T13:47:12.681Z,12.11
2023-02-12T13:48:32.659Z,11.72
2023-02-12T13:49:52.412Z,12.05
2023-02-12T13:51:01.350Z,13.04
2023-02-12T13:52:10.553Z,13.18
2023-02-12T13:53:22.905Z,12.96
2023-02-12T13:55:12.607Z,12.32
2023-02-12T13:56:29.052Z,13.63
2023-02-12T13:57:30.602Z,12.60
2023-02-12T13:58:35.052Z,11.95
2023-02-12T13:59:36.462Z,10.68
2023-02-12T14:00:50.644Z,10.61
2023-02-12T14:01:52.960Z,10.98
2023-02-12T14:02:54.452Z,11.34
2023-02-12T14:03:55.840Z,12.61
2023-02-12T14:05:01.225Z,13.11
2023-02-12T14:06:16.336Z,11.81
2023-02-12T14:07:19.462Z,11.60
2023-02-12T14:08:42.278Z,10.90
2023-02-12T14:09:59.785Z,9.46
2023-02-12T14:11:10.590Z,10.01
2023-02-12T14:12:27.267Z,10.40
2023-02-12T14:13:34.053Z,10.03
2023-02-12T14:14:40.742Z,10.05
2023-02-12T14:15:45.037Z,9.80
2023-02-12T14:16:46.666Z,9.78
2023-02-12T14:18:04.025Z,9.96
2023-02-12T14:20:03.265Z,10.15
2023-02-12T14:21:13.461Z,9.37
2023-02-12T14:22:35.041Z,9.87
2023-02-12T14:23:36.831Z,10.09
2023-02-12T14:24:38.163Z,10.33
2023-02-12T14:25:46.859Z,11.26
2023-02-12T14:26:48.484Z,11.82
2023-02-12T14:28:06.507Z,10.82
2023-02-12T14:29:21.098Z,10.68
2023-02-12T14:30:33.995Z,9.77
2023-02-12T14:31:37.656Z,9.59
2023-02-12T14:32:44.797Z,9.74
2023-02-12T14:33:48.940Z,9.78
2023-02-12T14:34:51.741Z,9.73
2023-02-12T14:36:32.188Z,9.52
2023-02-12T14:37:37.996Z,9.99
2023-02-12T14:38:47.384Z,10.27
2023-02-12T14:39:49.436Z,10.63
2023-02-12T14:40:52.564Z,11.85
2023-02-12T14:42:14.943Z,12.04
2023-02-12T14:43:56.823Z,11.61
2023-02-12T14:44:58.815Z,11.79
2023-02-12T14:46:22.094Z,12.39
2023-02-12T14:47:29.743Z,12.93
2023-02-12T14:48:52.207Z,12.47
2023-02-12T14:49:55.800Z,12.65
2023-02-12T14:50:57.664Z,13.22
2023-02-12T14:52:06.638Z,11.99
2023-02-12T14:53:35.364Z,13.34
2023-02-12T14:54:50.132Z,12.84
2023-02-12T14:55:52.490Z,13.62
2023-02-12T14:56:55.583Z,13.76
2023-02-12T14:58:00.256Z,14.01
2023-02-12T14:59:03.840Z,13.57
2023-02-12T15:00:23.743Z,13.07
2023-02-12T15:01:36.580Z,13.57
2023-02-12T15:02:41.703Z,13.86
2023-02-12T15:03:49.270Z,12.99
2023-02-12T15:04:52.933Z,12.44
2023-02-12T15:06:25.067Z,12.40
2023-02-12T15:07:37.222Z,12.98
2023-02-12T15:08:48.759Z,12.72
2023-02-12T15:10:15.353Z,12.21
2023-02-12T15:11:45.052Z,12.33
2023-02-12T15:12:57.856Z,11.86
2023-02-12T15:14:23.755Z,12.40
2023-02-12T15:15:33.824Z,13.27
2023-02-12T15:16:47.054Z,13.44
2023-02-12T15:17:59.218Z,13.67
2023-02-12T15:19:25.524Z,13.63
2023-02-12T15:20:37.538Z,11.71
2023-02-12T15:21:39.316Z,11.32
2023-02-12T15:22:41.245Z,12.03
2023-02-12T15:23:44.402Z,12.03
2023-02-12T15:24:47.014Z,11.19
2023-02-12T15:25:50.834Z,12.24
2023-02-12T15:26:58.126Z,12.04
2023-02-12T15:28:02.701Z,11.90
2023-02-12T15:29:04.710Z,12.40
2023-02-12T15:30:08.734Z,12.89
2023-02-12T15:31:16.825Z,12.64
2023-02-12T15:32:29.801Z,13.15
2023-02-12T15:33:33.896Z,13.48
2023-02-12T15:34:40.027Z,13.53
2023-02-12T15:35:45.115Z,12.20
2023-02-12T15:36:46.561Z,12.98
2023-02-12T15:37:49.559Z,13.23
2023-02-12T15:39:06.741Z,12.41
2023-02-12T15:40:14.827Z,13.13
2023-02-12T15:41:38.496Z,13.29
2023-02-12T15:42:42.415Z,13.14
2023-02-12T15:43:43.808Z,12.99
2023-02-12T15:44:45.210Z,13.19
2023-02-12T15:45:51.811Z,12.30
2023-02-12T15:46:58.465Z,12.99
2023-02-12T15:48:09.103Z,12.65
2023-02-12T15:49:22.188Z,12.74
2023-02-12T15:50:24.234Z,12.85
2023-02-12T15:51:41.474Z,12.76
2023-02-12T15:52:46.492Z,12.00
2023-02-12T15:53:48.220Z,12.28
2023-02-12T15:54:49.820Z,12.56
2023-02-12T15:55:52.031Z,12.66
2023-02-12T15:56:54.788Z,12.17
2023-02-12T15:57:59.913Z,12.45
2023-02-12T15:59:02.899Z,12.77
2023-02-12T16:00:09.613Z,12.89
2023-02-12T16:01:18.995Z,13.05
2023-02-12T16:02:29.951Z,12.84
2023-02-12T16:03:32.979Z,12.20
2023-02-12T16:04:40.534Z,11.99
2023-02-12T16:05:42.102Z,12.16
2023-02-12T16:06:43.701Z,12.10
2023-02-12T16:07:46.618Z,11.52
2023-02-12T16:09:17.906Z,11.58
2023-02-12T16:10:20.730Z,11.59
2023-02-12T16:11:24.069Z,11.48
2023-02-12T16:12:31.020Z,11.76
2023-02-12T16:13:34.743Z,11.69
2023-02-12T16:14:47.144Z,11.59
2023-02-12T16:16:04.680Z,11.35
2023-02-12T16:17:27.517Z,11.48
2023-02-12T16:18:29.170Z,11.46
2023-02-12T16:19:36.916Z,11.33
2023-02-12T16:20:38.378Z,11.23
2023-02-12T16:21:39.942Z,11.33
2023-02-12T16:22:44.136Z,10.48
2023-02-12T16:23:48.734Z,10.52
2023-02-12T16:24:52.436Z,10.47
2023-02-12T16:25:55.427Z,10.35
2023-02-12T16:27:01.877Z,10.23
2023-02-12T16:28:20.768Z,9.95
2023-02-12T16:29:22.220Z,9.29
2023-02-12T16:30:28.272Z,9.41
